Time;durP1;ratioP1;P1;durP2;ratioP2;P2;SDS_P1;SDS_P2;PMS_P1;PMS_P2;Temp;Humidity;BMP_temperature;BMP_pressure;BME280_temperature;BME280_humidity;BME280_pressure;Samples;Min_cycle;Max_cycle;Signal;HPM_P1;HPM_P2
2022/10/03 00:00:29;;;;;;;13.90;2.50;;;10.20;99.90;;;;;;4955988;28;20057;-79
2022/10/03 00:03:13;;;;;;;16.48;2.45;;;10.20;99.90;;;;;;4984952;28;20054;-77
2022/10/03 00:06:14;;;;;;;22.92;2.55;;;10.30;99.90;;;;;;4984322;28;20109;-81
2022/10/03 00:09:14;;;;;;;19.85;2.60;;;10.30;99.90;;;;;;4953367;28;20314;-79
2022/10/03 00:11:55;;;;;;;20.85;3.22;;;10.40;99.90;;;;;;4951463;28;20438;-76
2022/10/03 00:14:27;;;;;;;24.25;3.15;;;10.40;99.90;;;;;;4967156;28;20050;-79
2022/10/03 00:17:08;;;;;;;20.33;2.83;;;10.50;99.90;;;;;;4970138;28;20467;-80
2022/10/03 00:19:55;;;;;;;24.02;2.50;;;10.50;99.90;;;;;;4968547;28;20046;-80
2022/10/03 00:22:43;;;;;;;25.48;2.58;;;10.60;99.90;;;;;;4966234;28;20058;-76
2022/10/03 00:25:29;;;;;;;24.83;2.80;;;10.60;99.90;;;;;;5005980;28;20068;-76
2022/10/03 00:28:24;;;;;;;17.77;2.47;;;10.60;99.90;;;;;;5074009;28;20032;-82
2022/10/03 00:30:59;;;;;;;22.52;2.65;;;10.70;99.90;;;;;;5033388;28;20097;-80
2022/10/03 00:33:33;;;;;;;16.30;2.33;;;10.70;99.90;;;;;;5012782;28;20077;-77
2022/10/03 00:36:06;;;;;;;18.73;2.57;;;10.80;99.90;;;;;;5014888;28;20520;-77
2022/10/03 00:38:44;;;;;;;19.08;2.47;;;10.80;99.90;;;;;;5037398;28;20132;-81
2022/10/03 00:41:29;;;;;;;22.55;2.97;;;10.90;99.90;;;;;;5023928;28;20051;-80
2022/10/03 00:44:09;;;;;;;28.52;3.17;;;11.00;99.90;;;;;;5025430;28;20044;-80
2022/10/03 00:46:46;;;;;;;21.77;2.03;;;11.20;99.90;;;;;;5032779;28;20041;-79
2022/10/03 00:49:39;;;;;;;15.88;2.28;;;11.20;99.90;;;;;;5012586;28;20045;-81
2022/10/03 00:52:14;;;;;;;25.80;2.90;;;11.20;99.90;;;;;;5013826;28;20068;-78
2022/10/03 00:54:55;;;;;;;18.85;2.47;;;11.30;99.90;;;;;;5012987;28;20198;-77
2022/10/03 00:57:32;;;;;;;22.50;2.72;;;11.20;99.90;;;;;;5011511;28;20099;-78
2022/10/03 01:00:13;;;;;;;17.55;2.60;;;11.20;99.90;;;;;;5028554;28;20036;-82
2022/10/03 01:02:38;;;;;;;21.75;3.08;;;11.30;99.90;;;;;;5028417;28;20053;-81
2022/10/03 01:05:35;;;;;;;28.02;3.10;;;11.30;99.90;;;;;;5024282;28;20048;-79
2022/10/03 01:08:09;;;;;;;19.25;2.88;;;11.30;99.90;;;;;;5060260;28;20044;-79
2022/10/03 01:10:53;;;;;;;25.75;3.00;;;11.30;99.90;;;;;;5054275;28;20036;-78
2022/10/03 01:13:31;;;;;;;16.13;2.63;;;11.30;99.90;;;;;;5055294;28;20048;-80
2022/10/03 01:16:06;;;;;;;19.65;2.80;;;11.30;99.90;;;;;;5070202;28;20032;-78
2022/10/03 01:18:58;;;;;;;21.33;2.25;;;11.30;99.90;;;;;;5055670;28;20433;-76
2022/10/03 01:21:40;;;;;;;21.58;2.38;;;11.20;99.90;;;;;;5048289;28;20139;-79
2022/10/03 01:24:32;;;;;;;24.35;2.70;;;11.30;99.90;;;;;;5069741;28;20044;-78
2022/10/03 01:27:14;;;;;;;21.05;2.55;;;11.40;99.90;;;;;;5062389;28;20497;-76
2022/10/03 01:32:44;;;;;;;16.48;2.30;;;11.30;99.90;;;;;;5082434;28;20089;-78
2022/10/03 01:35:44;;;;;;;17.65;2.53;;;11.30;99.90;;;;;;5075394;28;20498;-78
2022/10/03 01:38:44;;;;;;;18.88;2.67;;;11.20;99.90;;;;;;5069563;28;20050;-79
2022/10/03 01:41:12;;;;;;;23.38;2.53;;;11.10;99.90;;;;;;5068414;28;20398;-80
2022/10/03 01:43:49;;;;;;;18.55;2.72;;;11.00;99.90;;;;;;5066659;28;20063;-79
2022/10/03 01:46:27;;;;;;;24.65;2.88;;;10.90;99.90;;;;;;5048729;28;20067;-77
2022/10/03 01:48:59;;;;;;;25.90;2.70;;;10.90;99.90;;;;;;5069512;28;20051;-81
2022/10/03 01:51:50;;;;;;;18.73;2.50;;;10.80;99.90;;;;;;5047649;28;20499;-81
2022/10/03 01:54:28;;;;;;;23.77;2.33;;;10.90;99.90;;;;;;5062487;28;20044;-79
2022/10/03 01:57:42;;;;;;;18.60;2.50;;;10.80;99.90;;;;;;5063394;28;20059;-80
2022/10/03 02:00:21;;;;;;;18.50;2.70;;;10.80;99.90;;;;;;5066327;28;20047;-82
2022/10/03 02:02:53;;;;;;;21.15;2.28;;;10.80;99.90;;;;;;5070955;28;20102;-78
2022/10/03 02:05:37;;;;;;;18.90;2.22;;;10.70;99.90;;;;;;5069581;28;21999;-81
2022/10/03 02:08:28;;;;;;;15.82;2.40;;;10.70;99.90;;;;;;5047970;28;20032;-78
2022/10/03 02:11:02;;;;;;;10.82;2.20;;;10.70;99.90;;;;;;5067227;28;20048;-76
2022/10/03 02:13:39;;;;;;;15.07;2.00;;;10.60;99.90;;;;;;5041486;28;20082;-82
2022/10/03 02:16:40;;;;;;;14.73;2.30;;;10.60;99.90;;;;;;5048029;28;20089;-78
2022/10/03 02:19:47;;;;;;;20.95;2.60;;;10.50;99.90;;;;;;5068380;28;20124;-78
2022/10/03 02:22:27;;;;;;;18.75;2.50;;;10.40;99.90;;;;;;4971600;28;20058;-79
2022/10/03 02:25:04;;;;;;;15.45;2.35;;;10.60;99.90;;;;;;4989121;28;20053;-76
2022/10/03 02:27:52;;;;;;;14.82;2.38;;;10.50;99.90;;;;;;4987287;28;20377;-78
2022/10/03 02:30:42;;;;;;;21.10;2.58;;;10.60;99.90;;;;;;4990881;28;20056;-77
2022/10/03 02:33:19;;;;;;;18.58;2.47;;;10.50;99.90;;;;;;5008042;28;20458;-81
2022/10/03 02:36:23;;;;;;;16.23;2.33;;;10.50;99.90;;;;;;4973900;28;20064;-79
2022/10/03 02:39:03;;;;;;;16.40;2.55;;;10.60;99.90;;;;;;4935176;28;20119;-81
2022/10/03 02:42:11;;;;;;;17.58;2.53;;;10.70;99.90;;;;;;4935300;28;20039;-80
2022/10/03 02:45:27;;;;;;;15.50;2.60;;;10.60;99.90;;;;;;4915783;28;20130;-78
2022/10/03 02:47:52;;;;;;;17.38;2.40;;;10.70;99.90;;;;;;4930380;28;20046;-79
2022/10/03 02:50:40;;;;;;;20.27;2.22;;;10.70;99.90;;;;;;4935082;28;20050;-77
2022/10/03 02:53:39;;;;;;;21.77;3.42;;;10.70;99.90;;;;;;4939408;28;20043;-79
2022/10/03 02:56:43;;;;;;;17.35;2.97;;;10.80;99.90;;;;;;4938493;28;20043;-77
2022/10/03 02:59:27;;;;;;;20.77;2.50;;;10.80;99.90;;;;;;4937330;28;20034;-80
2022/10/03 03:02:23;;;;;;;15.55;2.35;;;10.80;99.90;;;;;;4951302;28;20055;-78
2022/10/03 03:05:07;;;;;;;18.05;2.58;;;10.90;99.90;;;;;;4954162;28;20039;-80
2022/10/03 03:08:10;;;;;;;16.17;2.20;;;10.90;99.90;;;;;;4967013;28;20081;-80
2022/10/03 03:11:01;;;;;;;19.17;2.88;;;10.90;99.90;;;;;;4938011;28;20054;-78
2022/10/03 03:14:05;;;;;;;19.90;2.40;;;10.90;99.90;;;;;;4954891;28;20050;-79
2022/10/03 03:16:34;;;;;;;17.73;2.28;;;11.00;99.90;;;;;;5037498;28;20068;-79
2022/10/03 03:19:15;;;;;;;18.33;2.03;;;11.00;99.90;;;;;;5030626;28;20116;-79
2022/10/03 03:22:09;;;;;;;17.90;2.47;;;11.00;99.90;;;;;;5042599;28;20507;-78
2022/10/03 03:24:53;;;;;;;16.13;2.22;;;11.10;99.90;;;;;;5047218;28;20059;-80
2022/10/03 03:27:54;;;;;;;20.05;2.40;;;11.00;99.90;;;;;;5058409;28;20162;-80
2022/10/03 03:30:29;;;;;;;17.63;2.15;;;11.10;99.90;;;;;;5061952;28;20393;-78
2022/10/03 03:33:07;;;;;;;13.30;1.83;;;11.10;99.90;;;;;;5061857;28;20093;-77
2022/10/03 03:35:56;;;;;;;19.70;2.22;;;11.10;99.90;;;;;;5041755;28;20041;-81
2022/10/03 03:38:46;;;;;;;18.75;2.30;;;11.10;99.90;;;;;;5047252;28;20496;-78
2022/10/03 03:41:42;;;;;;;19.23;2.58;;;11.10;99.90;;;;;;5063623;28;20503;-78
2022/10/03 03:44:30;;;;;;;15.27;2.22;;;11.10;99.90;;;;;;5063581;28;20051;-77
2022/10/03 03:47:16;;;;;;;13.82;2.05;;;11.10;99.90;;;;;;5064957;28;20039;-78
2022/10/03 03:50:00;;;;;;;18.05;2.67;;;11.10;99.90;;;;;;5064266;28;20481;-76
2022/10/03 03:52:29;;;;;;;16.63;2.03;;;11.10;99.90;;;;;;5046911;28;20051;-79
2022/10/03 03:55:40;;;;;;;16.77;2.47;;;11.10;99.90;;;;;;5062397;28;20047;-79
2022/10/03 03:58:25;;;;;;;15.23;2.08;;;11.10;99.90;;;;;;5002082;28;20056;-79
2022/10/03 04:01:31;;;;;;;24.73;2.60;;;11.10;99.90;;;;;;4970806;28;20049;-80
2022/10/03 04:04:23;;;;;;;12.15;1.80;;;11.20;99.90;;;;;;4970822;28;20301;-78
2022/10/03 04:07:17;;;;;;;13.93;2.58;;;11.30;99.90;;;;;;4989012;28;20087;-79
2022/10/03 04:10:20;;;;;;;20.50;2.30;;;11.20;99.90;;;;;;4969851;28;20393;-81
2022/10/03 04:13:08;;;;;;;20.77;2.90;;;11.20;99.90;;;;;;4984202;28;20113;-78
2022/10/03 04:16:01;;;;;;;17.45;2.17;;;11.20;99.90;;;;;;4994351;28;20060;-79
2022/10/03 04:18:59;;;;;;;17.95;2.55;;;11.30;99.90;;;;;;4980977;28;20046;-78
2022/10/03 04:21:38;;;;;;;20.30;2.40;;;11.30;99.90;;;;;;4972123;28;20050;-81
2022/10/03 04:24:22;;;;;;;19.05;2.20;;;11.20;99.90;;;;;;4993392;28;20046;-81
2022/10/03 04:27:00;;;;;;;16.65;2.55;;;11.30;99.90;;;;;;5005102;28;20071;-77
2022/10/03 04:29:39;;;;;;;16.63;2.38;;;11.30;99.90;;;;;;4999802;28;20042;-77
2022/10/03 04:32:14;;;;;;;16.20;2.58;;;11.20;99.90;;;;;;5025150;28;20049;-77
2022/10/03 04:34:49;;;;;;;;;;;11.30;99.90;;;;;;5068310;28;20086;-79
2022/10/03 04:37:42;;;;;;;16.17;2.78;;;11.30;99.90;;;;;;5066103;28;20269;-77
2022/10/03 04:40:37;;;;;;;23.67;3.08;;;11.30;99.90;;;;;;5064889;28;20047;-79
2022/10/03 04:43:23;;;;;;;19.57;3.43;;;11.20;99.90;;;;;;4971218;28;20548;-80
2022/10/03 04:46:01;;;;;;;12.68;2.78;;;11.30;99.90;;;;;;5006208;28;20380;-77
2022/10/03 04:48:37;;;;;;;20.67;2.45;;;11.20;99.90;;;;;;4988541;28;20069;-78
2022/10/03 04:51:25;;;;;;;22.73;2.95;;;11.30;99.90;;;;;;4993177;28;20153;-80
2022/10/03 04:54:29;;;;;;;21.38;2.65;;;11.20;99.90;;;;;;4976400;28;20562;-78
2022/10/03 04:57:05;;;;;;;17.48;2.38;;;11.10;99.90;;;;;;4988689;28;20044;-79
2022/10/03 04:59:37;;;;;;;19.77;2.83;;;11.00;99.90;;;;;;4989505;28;20049;-78
2022/10/03 05:02:33;;;;;;;18.58;2.35;;;11.00;99.90;;;;;;4970609;28;20041;-77
2022/10/03 05:05:22;;;;;;;19.50;2.67;;;11.00;99.90;;;;;;4965956;28;20142;-82
2022/10/03 05:08:11;;;;;;;18.23;2.45;;;10.90;99.90;;;;;;4985226;28;20434;-80
2022/10/03 05:10:56;;;;;;;10.82;2.80;;;10.80;99.90;;;;;;4969431;28;20045;-78
2022/10/03 05:13:44;;;;;;;;;;;10.70;99.90;;;;;;5001944;28;20049;-79
2022/10/03 05:16:53;;;;;;;18.77;3.20;;;10.70;99.90;;;;;;5004835;28;19921;-79
2022/10/03 05:19:43;;;;;;;15.77;2.15;;;10.60;99.90;;;;;;4973136;28;20465;-79
2022/10/03 05:22:18;;;;;;;13.45;2.55;;;10.60;99.90;;;;;;5004350;28;20099;-81
2022/10/03 05:24:49;;;;;;;27.30;2.72;;;10.60;99.90;;;;;;5004402;28;20050;-78
2022/10/03 05:27:24;;;;;;;21.23;2.58;;;10.60;99.90;;;;;;4988658;28;20037;-79
2022/10/03 05:30:01;;;;;;;23.42;2.97;;;10.50;99.90;;;;;;5026670;28;20047;-81
2022/10/03 05:32:39;;;;;;;22.75;2.88;;;10.40;99.90;;;;;;5004789;28;20055;-78
2022/10/03 05:35:35;;;;;;;15.00;2.55;;;10.50;99.90;;;;;;5005053;28;20034;-80
2022/10/03 05:38:25;;;;;;;19.50;2.80;;;10.40;99.90;;;;;;5021944;28;20663;-78
2022/10/03 05:41:35;;;;;;;18.20;2.83;;;10.40;99.90;;;;;;4992401;28;20731;-75
2022/10/03 05:44:07;;;;;;;21.10;2.42;;;10.40;99.90;;;;;;4990590;28;20053;-78
2022/10/03 05:46:47;;;;;;;8.50;2.15;;;10.30;99.90;;;;;;5003865;28;20200;-80
2022/10/03 05:49:43;;;;;;;19.48;3.03;;;10.30;99.90;;;;;;4974257;28;20041;-78
2022/10/03 05:52:46;;;;;;;18.65;3.35;;;10.30;99.90;;;;;;5022022;28;20045;-78
2022/10/03 05:55:51;;;;;;;11.18;2.60;;;10.10;99.90;;;;;;5009296;28;20041;-81
2022/10/03 05:58:22;;;;;;;22.85;2.95;;;10.10;99.90;;;;;;5045022;28;20056;-78
2022/10/03 06:00:57;;;;;;;18.30;2.85;;;10.00;99.90;;;;;;5065645;28;20059;-76
2022/10/03 06:03:29;;;;;;;21.70;2.65;;;10.00;99.90;;;;;;5048080;28;20168;-78
2022/10/03 06:06:16;;;;;;;24.55;2.88;;;10.00;99.90;;;;;;5063576;28;20155;-80
2022/10/03 06:09:31;;;;;;;16.30;2.83;;;9.90;99.90;;;;;;5065083;28;20163;-79
2022/10/03 06:12:15;;;;;;;16.17;2.30;;;9.90;99.90;;;;;;5055717;28;20051;-77
2022/10/03 06:15:16;;;;;;;13.48;2.55;;;9.90;99.90;;;;;;5046884;28;20067;-79
2022/10/03 06:18:13;;;;;;;14.98;2.17;;;9.90;99.90;;;;;;5047530;28;20051;-78
2022/10/03 06:20:44;;;;;;;17.23;2.50;;;9.90;99.90;;;;;;5067527;28;20060;-80
2022/10/03 06:23:38;;;;;;;20.33;2.83;;;9.90;99.90;;;;;;5067968;28;20155;-79
2022/10/03 06:26:37;;;;;;;21.80;3.58;;;10.00;99.90;;;;;;5049549;28;20489;-80
2022/10/03 06:29:34;;;;;;;22.77;2.70;;;10.00;99.90;;;;;;5065344;28;20047;-79
2022/10/03 06:32:21;;;;;;;17.35;2.60;;;10.00;99.90;;;;;;5066185;28;20048;-78
2022/10/03 06:35:17;;;;;;;19.08;2.83;;;10.00;99.90;;;;;;5046906;28;20044;-76
2022/10/03 06:38:17;;;;;;;14.25;2.60;;;10.00;99.90;;;;;;5053251;28;20075;-78
2022/10/03 06:41:19;;;;;;;15.93;2.85;;;10.10;99.90;;;;;;5045352;28;20483;-79
2022/10/03 06:44:03;;;;;;;17.10;2.60;;;10.10;99.90;;;;;;5047776;28;20041;-76
2022/10/03 06:47:06;;;;;;;20.88;2.78;;;10.20;99.90;;;;;;5047484;28;20226;-81
2022/10/03 06:49:41;;;;;;;12.65;2.60;;;10.30;99.90;;;;;;5049141;28;20175;-81
2022/10/03 06:52:32;;;;;;;21.45;2.45;;;10.20;99.90;;;;;;5064801;28;20047;-78
2022/10/03 06:55:20;;;;;;;19.45;2.38;;;10.40;99.90;;;;;;5066455;28;20421;-80
2022/10/03 06:58:13;;;;;;;19.25;2.42;;;10.40;99.90;;;;;;5058751;28;20048;-80
2022/10/03 07:01:12;;;;;;;12.90;2.40;;;10.40;99.90;;;;;;5063637;28;20050;-78
2022/10/03 07:04:04;;;;;;;22.33;2.50;;;10.50;99.90;;;;;;5081578;28;20489;-78
2022/10/03 07:06:51;;;;;;;17.67;1.90;;;10.60;99.90;;;;;;5046754;28;20048;-77
2022/10/03 07:09:44;;;;;;;22.23;2.38;;;10.70;99.90;;;;;;5056133;28;20051;-78
2022/10/03 07:12:39;;;;;;;15.13;2.60;;;10.70;99.90;;;;;;5048192;28;20044;-79
2022/10/03 07:15:21;;;;;;;16.35;2.03;;;10.80;99.90;;;;;;5066178;28;20070;-80
2022/10/03 07:18:05;;;;;;;17.73;2.70;;;10.90;99.90;;;;;;5047005;28;20044;-79
2022/10/03 07:20:49;;;;;;;16.58;2.30;;;11.00;99.90;;;;;;5054015;28;20063;-78
2022/10/03 07:23:53;;;;;;;16.33;2.55;;;11.10;99.90;;;;;;5055007;28;20150;-79
2022/10/03 07:26:49;;;;;;;17.35;2.50;;;11.10;99.90;;;;;;5043213;28;20613;-79
2022/10/03 07:29:30;;;;;;;12.45;2.20;;;11.10;99.90;;;;;;5038230;28;20067;-81
2022/10/03 07:32:15;;;;;;;13.13;2.30;;;11.30;99.90;;;;;;5040491;28;20040;-81
2022/10/03 07:35:06;;;;;;;15.77;2.63;;;11.40;99.90;;;;;;5052693;28;20045;-78
2022/10/03 07:40:50;;;;;;;14.23;2.50;;;11.70;99.90;;;;;;5032961;28;20051;-81
2022/10/03 07:43:44;;;;;;;13.55;2.90;;;11.70;99.90;;;;;;5048185;28;20036;-79
2022/10/03 07:46:18;;;;;;;20.77;2.63;;;11.90;99.90;;;;;;5039526;28;20036;-81
2022/10/03 07:49:09;;;;;;;20.08;2.25;;;11.90;99.90;;;;;;5048737;28;20044;-80
2022/10/03 07:52:11;;;;;;;14.27;2.47;;;12.00;99.90;;;;;;5025190;28;20048;-80
2022/10/03 07:54:56;;;;;;;10.98;2.17;;;12.40;99.90;;;;;;5032282;28;20059;-78
2022/10/03 07:57:30;;;;;;;14.05;2.10;;;12.40;99.90;;;;;;5034651;28;20063;-77
2022/10/03 08:00:14;;;;;;;13.07;2.50;;;12.50;99.90;;;;;;5031609;28;20451;-80
2022/10/03 08:03:07;;;;;;;12.93;2.33;;;12.50;99.90;;;;;;5048424;28;20055;-78
2022/10/03 08:06:05;;;;;;;15.52;2.47;;;12.60;99.90;;;;;;5027689;28;20120;-76
2022/10/03 08:08:55;;;;;;;13.70;2.50;;;12.70;99.90;;;;;;5055609;28;20059;-78
2022/10/03 08:11:49;;;;;;;12.50;2.35;;;12.90;99.90;;;;;;5037595;28;20256;-76
2022/10/03 08:14:23;;;;;;;17.92;2.30;;;13.00;99.90;;;;;;5030121;28;20110;-79
2022/10/03 08:17:10;;;;;;;17.90;1.88;;;13.10;99.90;;;;;;5042732;28;20072;-79
2022/10/03 08:19:54;;;;;;;15.48;2.25;;;13.10;99.90;;;;;;5043969;28;20048;-78
2022/10/03 08:22:41;;;;;;;18.35;2.13;;;13.20;99.90;;;;;;5038713;28;20048;-81
2022/10/03 08:25:27;;;;;;;16.15;2.28;;;13.30;99.90;;;;;;5045720;28;20101;-80
2022/10/03 08:28:12;;;;;;;14.95;1.77;;;13.40;99.90;;;;;;5044100;28;20117;-77
2022/10/03 08:30:47;;;;;;;8.18;1.60;;;13.50;99.90;;;;;;5045813;28;20068;-79
2022/10/03 08:33:45;;;;;;;14.60;2.40;;;13.50;99.90;;;;;;5057613;28;20044;-82
2022/10/03 08:36:23;;;;;;;17.90;2.67;;;13.60;99.90;;;;;;5030130;28;20059;-77
2022/10/03 08:39:01;;;;;;;14.20;1.58;;;13.60;99.90;;;;;;5045405;28;20113;-79
2022/10/03 08:41:48;;;;;;;15.48;2.20;;;13.70;99.90;;;;;;5042601;28;20040;-76
2022/10/03 08:44:32;;;;;;;15.20;2.10;;;13.80;99.90;;;;;;5063356;28;20456;-77
2022/10/03 08:47:10;;;;;;;16.63;1.97;;;13.80;99.90;;;;;;5062106;28;20042;-79
2022/10/03 08:49:54;;;;;;;10.82;2.03;;;13.90;99.90;;;;;;5071273;28;20819;-78
2022/10/03 08:52:31;;;;;;;11.13;1.80;;;13.90;99.90;;;;;;5067849;28;20044;-79
2022/10/03 08:55:00;;;;;;;11.32;1.92;;;14.10;99.90;;;;;;5074784;28;20056;-80
2022/10/03 08:58:03;;;;;;;15.82;2.35;;;14.20;99.90;;;;;;5064107;28;20052;-77
2022/10/03 09:00:53;;;;;;;11.23;2.10;;;14.30;99.90;;;;;;5053356;28;20044;-76
2022/10/03 09:03:50;;;;;;;12.75;1.95;;;14.60;99.90;;;;;;5045364;28;20048;-81
2022/10/03 09:06:51;;;;;;;10.68;1.70;;;14.60;99.90;;;;;;4955984;28;20050;-76
2022/10/03 09:09:19;;;;;;;10.90;1.77;;;14.60;99.90;;;;;;4959527;28;20193;-81
2022/10/03 09:12:31;;;;;;;11.07;1.88;;;14.70;99.90;;;;;;4946302;28;20079;-79
2022/10/03 09:15:35;;;;;;;11.88;2.00;;;14.60;99.90;;;;;;4960120;28;20074;-78
2022/10/03 09:18:04;;;;;;;16.00;2.33;;;14.70;99.90;;;;;;4949839;28;21751;-78
2022/10/03 09:21:06;;;;;;;10.95;1.63;;;14.80;99.90;;;;;;4949904;28;20039;-77
2022/10/03 09:23:55;;;;;;;16.77;2.25;;;14.90;99.90;;;;;;4965011;28;20498;-80
2022/10/03 09:26:40;;;;;;;13.98;1.75;;;15.00;99.90;;;;;;4950977;28;20095;-81
2022/10/03 09:29:27;;;;;;;14.70;1.73;;;14.90;99.90;;;;;;4946782;28;20541;-81
2022/10/03 09:32:28;;;;;;;13.52;1.73;;;15.00;99.90;;;;;;4952306;28;20073;-76
2022/10/03 09:35:16;;;;;;;11.38;1.95;;;15.00;99.90;;;;;;4951074;28;20104;-80
2022/10/03 09:38:14;;;;;;;13.48;2.47;;;15.00;99.90;;;;;;4932624;28;20101;-80
2022/10/03 09:40:58;;;;;;;12.25;1.77;;;15.10;99.90;;;;;;4946927;28;20089;-78
2022/10/03 09:43:42;;;;;;;15.75;2.30;;;15.10;99.90;;;;;;4966376;28;20049;-81
2022/10/03 09:46:17;;;;;;;9.70;1.40;;;15.10;99.90;;;;;;4970288;28;20081;-77
2022/10/03 09:48:58;;;;;;;11.70;2.30;;;15.20;99.90;;;;;;4978559;28;20537;-82
2022/10/03 09:51:23;;;;;;;10.13;1.83;;;15.20;99.90;;;;;;4989830;28;20045;-77
2022/10/03 09:54:07;;;;;;;12.85;1.80;;;15.40;99.90;;;;;;4995069;28;20386;-76
2022/10/03 09:56:39;;;;;;;12.88;1.92;;;15.40;99.90;;;;;;4988908;28;20042;-76
2022/10/03 09:59:28;;;;;;;14.02;2.40;;;15.50;99.90;;;;;;4991493;28;20409;-81
2022/10/03 10:02:34;;;;;;;12.93;1.63;;;15.60;99.90;;;;;;4979391;28;20073;-81
2022/10/03 10:05:10;;;;;;;11.52;1.70;;;15.70;99.90;;;;;;4984499;28;20104;-77
2022/10/03 10:08:09;;;;;;;10.38;1.98;;;15.70;99.90;;;;;;4970958;28;20479;-78
2022/10/03 10:11:01;;;;;;;11.55;1.90;;;15.70;99.90;;;;;;5048469;28;20047;-78
2022/10/03 10:13:54;;;;;;;10.68;1.85;;;15.70;99.90;;;;;;5047101;28;20333;-80
2022/10/03 10:16:55;;;;;;;10.23;1.40;;;15.80;99.90;;;;;;5065828;28;23088;-79
2022/10/03 10:19:36;;;;;;;10.65;1.85;;;15.90;99.90;;;;;;5048746;28;20053;-81
2022/10/03 10:22:49;;;;;;;13.45;2.08;;;15.90;99.90;;;;;;5037689;28;20110;-79
2022/10/03 10:25:32;;;;;;;12.27;2.05;;;16.00;99.90;;;;;;5005303;28;20528;-78
2022/10/03 10:28:31;;;;;;;11.75;1.98;;;16.10;99.90;;;;;;4994233;28;20224;-79
2022/10/03 10:31:15;;;;;;;7.38;1.45;;;16.20;99.90;;;;;;4972887;28;20088;-80
2022/10/03 10:33:50;;;;;;;8.25;1.92;;;16.20;99.90;;;;;;4989543;28;20418;-82
2022/10/03 10:36:59;;;;;;;10.85;1.67;;;16.20;99.90;;;;;;4992311;28;20050;-78
2022/10/03 10:39:54;;;;;;;9.18;1.70;;;16.20;99.90;;;;;;4987809;28;20132;-76
2022/10/03 10:42:55;;;;;;;8.32;1.30;;;16.30;99.90;;;;;;4986027;28;20486;-80
2022/10/03 10:45:45;;;;;;;10.65;1.88;;;16.40;99.90;;;;;;4986981;28;20415;-78
2022/10/03 10:48:44;;;;;;;6.05;1.20;;;16.40;99.90;;;;;;5007397;28;20137;-78
2022/10/03 10:51:28;;;;;;;11.52;1.58;;;16.60;99.90;;;;;;4991002;28;20054;-77
2022/10/03 10:54:21;;;;;;;10.10;1.80;;;16.50;99.90;;;;;;5008540;28;20374;-78
2022/10/03 10:57:21;;;;;;;9.13;2.05;;;16.50;99.90;;;;;;5003463;28;20174;-78
2022/10/03 11:00:15;;;;;;;9.07;1.60;;;16.50;99.90;;;;;;4985870;28;20062;-76
2022/10/03 11:03:19;;;;;;;15.73;2.33;;;16.60;99.90;;;;;;5047275;28;20051;-80
2022/10/03 11:06:16;;;;;;;7.85;1.50;;;16.60;99.90;;;;;;5031923;28;20054;-81
2022/10/03 11:09:10;;;;;;;7.80;1.27;;;16.40;99.90;;;;;;5029259;28;20132;-81
2022/10/03 11:12:07;;;;;;;8.27;1.50;;;16.60;99.90;;;;;;5052408;28;20047;-78
2022/10/03 11:15:07;;;;;;;8.38;1.70;;;16.50;99.90;;;;;;5051240;28;20182;-76
2022/10/03 11:18:10;;;;;;;11.38;1.80;;;16.50;99.90;;;;;;5043625;28;20048;-76
2022/10/03 11:21:03;;;;;;;9.88;1.42;;;16.70;99.90;;;;;;5046543;28;20059;-77
2022/10/03 11:24:10;;;;;;;7.32;1.70;;;16.60;99.90;;;;;;5034121;28;20087;-82
2022/10/03 11:26:59;;;;;;;9.05;1.65;;;16.50;99.90;;;;;;4990436;28;20054;-77
2022/10/03 11:29:52;;;;;;;9.23;1.45;;;16.80;99.90;;;;;;4976202;28;20053;-78
2022/10/03 11:32:32;;;;;;;5.35;1.10;;;16.70;99.90;;;;;;4995251;28;20180;-76
2022/10/03 11:35:46;;;;;;;7.40;1.45;;;16.80;99.90;;;;;;4991857;28;20454;-77
2022/10/03 11:38:29;;;;;;;14.07;1.70;;;16.70;99.90;;;;;;4944385;28;20141;-77
2022/10/03 11:40:57;;;;;;;7.85;1.98;;;16.60;99.90;;;;;;4969421;28;20051;-76
2022/10/03 11:44:00;;;;;;;6.80;1.25;;;16.70;99.90;;;;;;4954173;28;20133;-80
2022/10/03 11:46:56;;;;;;;8.82;1.52;;;16.80;99.90;;;;;;4931363;28;20059;-74
2022/10/03 11:49:39;;;;;;;5.53;1.17;;;17.00;99.90;;;;;;4934566;28;20051;-81
2022/10/03 11:52:26;;;;;;;8.23;1.38;;;17.10;99.90;;;;;;4951466;28;20058;-79
2022/10/03 11:55:23;;;;;;;8.55;1.55;;;17.20;99.90;;;;;;4962757;28;20054;-79
2022/10/03 11:58:23;;;;;;;8.93;1.38;;;17.30;99.90;;;;;;4934056;29;20451;-76
2022/10/03 12:01:00;;;;;;;7.47;1.23;;;17.60;99.90;;;;;;4947193;28;20121;-81
2022/10/03 12:03:34;;;;;;;5.80;1.30;;;17.40;99.90;;;;;;4947023;28;20521;-78
2022/10/03 12:09:13;;;;;;;;;;;17.70;99.90;;;;;;4968399;28;20540;-79
2022/10/03 12:12:05;;;;;;;6.82;1.50;;;17.70;99.90;;;;;;4956991;28;20289;-78
2022/10/03 12:14:45;;;;;;;8.50;1.27;;;17.60;99.90;;;;;;5009663;28;20167;-77
2022/10/03 12:17:15;;;;;;;4.97;1.25;;;17.60;99.90;;;;;;5034821;28;20531;-77
2022/10/03 12:19:57;;;;;;;6.95;1.40;;;17.60;99.90;;;;;;5067015;28;20502;-78
2022/10/03 12:22:48;;;;;;;10.57;1.70;;;17.70;99.90;;;;;;5054455;28;20535;-80
2022/10/03 12:25:33;;;;;;;8.00;1.25;;;17.60;99.90;;;;;;5056025;28;20462;-81
2022/10/03 12:28:19;;;;;;;6.25;1.25;;;17.60;99.90;;;;;;5057315;28;20051;-83
2022/10/03 12:31:20;;;;;;;13.52;1.77;;;17.10;99.90;;;;;;5080274;28;20150;-83
2022/10/03 12:34:04;;;;;;;8.63;1.42;;;17.10;99.90;;;;;;5065681;28;20093;-79
2022/10/03 12:36:46;;;;;;;9.00;1.95;;;17.30;99.90;;;;;;5073129;28;20049;-78
2022/10/03 12:39:18;;;;;;;7.78;1.83;;;17.30;99.90;;;;;;5062996;28;20070;-80
2022/10/03 12:41:55;;;;;;;8.65;1.60;;;17.20;99.90;;;;;;5076128;28;20460;-81
2022/10/03 12:44:55;;;;;;;9.85;1.58;;;17.10;99.90;;;;;;5068682;28;20685;-80
2022/10/03 12:47:27;;;;;;;5.18;1.25;;;17.20;99.90;;;;;;5077272;28;20040;-79
2022/10/03 12:50:21;;;;;;;7.78;1.52;;;17.50;99.90;;;;;;5070110;28;20035;-77
2022/10/03 12:53:16;;;;;;;5.55;1.50;;;17.50;99.90;;;;;;5068823;28;20079;-79
2022/10/03 12:55:59;;;;;;;7.43;1.52;;;17.60;99.90;;;;;;5054484;28;20051;-80
2022/10/03 12:59:06;;;;;;;5.60;1.23;;;17.60;99.90;;;;;;5051268;28;20556;-82
2022/10/03 13:01:59;;;;;;;8.20;1.55;;;17.60;99.90;;;;;;5069284;28;20067;-78
2022/10/03 13:04:28;;;;;;;5.82;1.33;;;17.50;99.90;;;;;;5062352;28;20070;-78
2022/10/03 13:07:29;;;;;;;8.82;1.75;;;17.40;99.90;;;;;;5059034;28;20044;-79
2022/10/03 13:10:30;;;;;;;7.80;1.60;;;17.40;99.90;;;;;;4972172;28;20049;-79
2022/10/03 13:13:16;;;;;;;7.97;1.35;;;17.60;99.90;;;;;;4965113;28;20046;-78
2022/10/03 13:15:54;;;;;;;9.82;1.42;;;17.60;99.90;;;;;;4964879;28;20437;-81
2022/10/03 13:18:29;;;;;;;6.22;1.20;;;17.80;99.90;;;;;;4956799;28;20172;-79
2022/10/03 13:21:15;;;;;;;5.45;1.17;;;17.70;99.90;;;;;;4966259;28;20053;-80
2022/10/03 13:23:52;;;;;;;8.90;1.30;;;17.80;99.90;;;;;;4975024;28;20093;-80
2022/10/03 13:26:48;;;;;;;7.97;1.33;;;17.70;99.90;;;;;;4959260;28;20148;-80
2022/10/03 13:29:39;;;;;;;7.35;1.73;;;17.60;99.90;;;;;;4954687;28;20073;-77
2022/10/03 13:32:21;;;;;;;11.02;1.70;;;17.50;99.90;;;;;;4983291;28;20133;-78
2022/10/03 13:34:46;;;;;;;7.53;1.40;;;17.40;99.90;;;;;;4974461;28;20053;-79
2022/10/03 13:37:40;;;;;;;7.82;1.45;;;17.30;99.90;;;;;;4995762;28;20078;-80
2022/10/03 13:40:14;;;;;;;6.97;1.30;;;17.50;99.90;;;;;;4953543;28;20048;-78
2022/10/03 13:42:52;;;;;;;7.65;1.40;;;17.70;99.90;;;;;;4986276;28;20105;-80
2022/10/03 13:45:24;;;;;;;7.25;1.50;;;17.90;99.90;;;;;;5064615;28;20125;-80
2022/10/03 13:47:56;;;;;;;8.20;1.20;;;17.90;99.90;;;;;;5059686;28;21011;-79
2022/10/03 13:50:30;;;;;;;7.32;1.75;;;17.90;99.90;;;;;;5050155;28;20544;-79
2022/10/03 13:53:10;;;;;;;9.45;1.38;;;18.00;99.90;;;;;;5065999;28;20051;-78
2022/10/03 13:55:49;;;;;;;8.00;1.30;;;17.70;99.90;;;;;;5066439;28;20070;-78
2022/10/03 13:58:31;;;;;;;5.65;1.10;;;17.70;99.90;;;;;;5064910;28;20166;-78
2022/10/03 14:01:06;;;;;;;8.07;1.50;;;17.70;99.90;;;;;;5048215;28;20078;-79
2022/10/03 14:03:54;;;;;;;6.47;1.40;;;17.60;99.90;;;;;;5068067;28;20070;-79
2022/10/03 14:06:31;;;;;;;8.80;1.30;;;17.50;99.90;;;;;;5051366;28;20051;-80
2022/10/03 14:09:34;;;;;;;7.68;1.40;;;17.50;99.90;;;;;;5046631;28;20048;-80
2022/10/03 14:12:14;;;;;;;8.35;1.52;;;17.50;99.90;;;;;;5067980;28;20068;-77
2022/10/03 14:14:58;;;;;;;10.20;1.48;;;17.50;99.90;;;;;;5055340;28;20103;-78
2022/10/03 14:17:43;;;;;;;11.82;1.85;;;17.50;99.90;;;;;;5056509;28;20048;-76
2022/10/03 14:20:22;;;;;;;7.57;1.52;;;17.50;99.90;;;;;;5063940;28;20036;-79
2022/10/03 14:23:20;;;;;;;8.38;1.55;;;17.50;99.90;;;;;;5047064;28;1177212;-77
2022/10/03 14:25:58;;;;;;;5.05;1.17;;;17.60;99.90;;;;;;5053117;28;20056;-79
2022/10/03 14:28:36;;;;;;;5.68;1.17;;;17.50;99.90;;;;;;5082098;28;20066;-80
2022/10/03 14:31:30;;;;;;;7.88;1.40;;;17.60;99.90;;;;;;5068286;28;20138;-80